createdAt,value
2022-10-18T00:00:12.577Z,16.56
2022-10-18T00:02:40.953Z,16.51
2022-10-18T00:05:10.311Z,16.49
2022-10-18T00:07:38.905Z,16.50
2022-10-18T00:10:11.419Z,16.40
2022-10-18T00:12:41.971Z,16.57
2022-10-18T00:15:13.513Z,16.58
2022-10-18T00:17:42.304Z,16.65
2022-10-18T00:20:12.883Z,16.38
2022-10-18T00:22:43.122Z,16.33
2022-10-18T00:25:11.699Z,16.42
2022-10-18T00:27:40.275Z,16.34
2022-10-18T00:30:12.676Z,16.50
2022-10-18T00:32:43.182Z,16.45
2022-10-18T00:35:11.654Z,16.48
2022-10-18T00:37:40.002Z,16.52
2022-10-18T00:40:10.525Z,16.65
2022-10-18T00:42:39.587Z,16.66
2022-10-18T00:45:25.780Z,16.61
2022-10-18T00:48:03.272Z,16.61
2022-10-18T00:50:35.341Z,16.66
2022-10-18T00:53:10.062Z,16.43
2022-10-18T00:55:38.449Z,16.45
2022-10-18T00:58:07.949Z,16.62
2022-10-18T01:00:40.935Z,16.61
2022-10-18T01:03:10.764Z,16.55
2022-10-18T01:05:49.282Z,16.50
2022-10-18T01:08:41.167Z,16.64
2022-10-18T01:11:36.029Z,16.54
2022-10-18T01:14:20.444Z,16.67
2022-10-18T01:17:00.537Z,16.77
2022-10-18T01:20:09.561Z,16.83
2022-10-18T01:22:44.582Z,16.67
2022-10-18T01:25:31.278Z,16.36
2022-10-18T01:28:14.045Z,16.45
2022-10-18T01:30:53.018Z,16.19
2022-10-18T01:33:39.444Z,16.26
2022-10-18T01:36:15.298Z,16.42
2022-10-18T01:38:45.958Z,16.50
2022-10-18T01:41:16.168Z,16.64
2022-10-18T01:43:47.735Z,16.46
2022-10-18T01:46:23.347Z,16.31
2022-10-18T01:48:53.586Z,16.22
2022-10-18T01:51:26.611Z,16.25
2022-10-18T01:53:55.395Z,16.33
2022-10-18T01:56:36.533Z,16.30
2022-10-18T01:59:24.205Z,16.45
2022-10-18T02:02:07.520Z,16.18
2022-10-18T02:04:45.644Z,16.08
2022-10-18T02:07:26.145Z,16.02
2022-10-18T02:10:04.430Z,16.05
2022-10-18T02:12:34.997Z,16.00
2022-10-18T02:15:06.253Z,16.20
2022-10-18T02:17:36.150Z,16.24
2022-10-18T02:20:09.959Z,16.33
2022-10-18T02:22:42.434Z,16.16
2022-10-18T02:25:15.120Z,16.22
2022-10-18T02:27:43.574Z,16.18
2022-10-18T02:30:13.459Z,16.29
2022-10-18T02:32:49.814Z,16.32
2022-10-18T02:35:26.323Z,16.25
2022-10-18T02:37:56.335Z,16.41
2022-10-18T02:40:25.576Z,16.55
2022-10-18T02:42:59.598Z,16.61
2022-10-18T02:45:28.762Z,16.65
2022-10-18T02:47:58.888Z,16.71
2022-10-18T02:50:27.890Z,16.62
2022-10-18T02:52:56.154Z,16.62
2022-10-18T02:55:25.265Z,16.46
2022-10-18T02:57:53.786Z,16.40
2022-10-18T03:00:22.300Z,16.40
2022-10-18T03:02:50.637Z,16.42
2022-10-18T03:05:20.898Z,16.53
2022-10-18T03:07:49.376Z,16.60
2022-10-18T03:10:18.041Z,16.66
2022-10-18T03:12:47.049Z,16.80
2022-10-18T03:15:15.696Z,16.73
2022-10-18T03:17:44.026Z,16.71
2022-10-18T03:20:13.881Z,16.48
2022-10-18T03:22:43.864Z,16.38
2022-10-18T03:25:12.124Z,16.26
2022-10-18T03:27:40.769Z,16.24
2022-10-18T03:30:11.908Z,16.41
2022-10-18T03:32:40.538Z,16.49
2022-10-18T03:35:10.855Z,16.52
2022-10-18T03:37:40.618Z,16.36
2022-10-18T03:40:12.780Z,16.29
2022-10-18T03:42:41.530Z,16.37
2022-10-18T03:45:11.359Z,16.38
2022-10-18T03:47:40.019Z,16.34
2022-10-18T03:50:09.871Z,16.31
2022-10-18T03:52:38.222Z,16.33
2022-10-18T03:55:08.119Z,16.21
2022-10-18T03:57:37.837Z,16.23
2022-10-18T04:00:08.232Z,16.34
2022-10-18T04:02:40.426Z,16.33
2022-10-18T04:05:10.409Z,16.31
2022-10-18T04:07:38.763Z,16.16
2022-10-18T04:10:08.662Z,16.02
2022-10-18T04:12:38.248Z,15.97
2022-10-18T04:15:08.532Z,16.07
2022-10-18T04:17:37.140Z,16.25
2022-10-18T04:20:06.590Z,16.15
2022-10-18T04:22:35.030Z,16.24
2022-10-18T04:25:04.141Z,16.22
2022-10-18T04:27:32.793Z,16.23
2022-10-18T04:30:03.266Z,16.16
2022-10-18T04:32:31.839Z,16.29
2022-10-18T04:35:00.925Z,16.11
2022-10-18T04:37:29.872Z,16.24
2022-10-18T04:39:58.694Z,16.24
2022-10-18T04:42:29.251Z,16.09
2022-10-18T04:44:58.252Z,16.34
2022-10-18T04:47:28.490Z,16.24
2022-10-18T04:49:57.474Z,16.16
2022-10-18T04:52:25.838Z,16.17
2022-10-18T04:54:54.058Z,16.24
2022-10-18T04:57:22.357Z,16.16
2022-10-18T04:59:50.638Z,16.11
2022-10-18T05:02:19.291Z,16.30
2022-10-18T05:04:49.284Z,16.34
2022-10-18T05:07:18.156Z,16.16
2022-10-18T05:09:46.534Z,16.18
2022-10-18T05:12:14.989Z,16.13
2022-10-18T05:14:43.699Z,16.17
2022-10-18T05:17:11.996Z,16.11
2022-10-18T05:19:40.884Z,16.05
2022-10-18T05:22:10.766Z,16.08
2022-10-18T05:24:39.205Z,15.84
2022-10-18T05:27:08.023Z,15.77
2022-10-18T05:29:36.424Z,15.78
2022-10-18T05:32:05.698Z,15.73
2022-10-18T05:34:34.339Z,15.78
2022-10-18T05:37:02.968Z,15.80
2022-10-18T05:39:33.211Z,15.72
2022-10-18T05:42:02.518Z,15.81
2022-10-18T05:44:30.942Z,15.77
2022-10-18T05:46:59.347Z,15.75
2022-10-18T05:49:27.639Z,15.75
2022-10-18T05:51:56.283Z,15.96
2022-10-18T05:54:24.550Z,15.98
2022-10-18T05:56:54.499Z,16.07
2022-10-18T05:59:22.876Z,16.17
2022-10-18T06:01:51.410Z,16.28
2022-10-18T06:04:19.681Z,16.49
2022-10-18T06:06:48.151Z,16.53
2022-10-18T06:09:16.844Z,16.21
2022-10-18T06:11:45.431Z,16.35
2022-10-18T06:14:15.261Z,16.30
2022-10-18T06:16:43.873Z,16.20
2022-10-18T06:19:12.405Z,16.07
2022-10-18T06:21:40.848Z,16.13
2022-10-18T06:24:09.109Z,16.31
2022-10-18T06:26:37.703Z,16.52
2022-10-18T06:29:06.416Z,16.41
2022-10-18T06:31:36.450Z,16.24
2022-10-18T06:34:04.940Z,16.17
2022-10-18T06:36:33.816Z,15.90
2022-10-18T06:39:02.732Z,15.94
2022-10-18T06:41:31.499Z,15.76
2022-10-18T06:44:17.413Z,15.72
2022-10-18T06:46:48.717Z,15.83
2022-10-18T06:49:19.213Z,15.92
2022-10-18T06:51:48.053Z,15.93
2022-10-18T06:54:18.689Z,16.06
2022-10-18T06:56:48.106Z,16.05
2022-10-18T06:59:16.451Z,16.07
2022-10-18T07:01:46.371Z,16.20
2022-10-18T07:04:17.557Z,16.17
2022-10-18T07:06:46.289Z,16.19
2022-10-18T07:09:14.954Z,16.06
2022-10-18T07:11:43.392Z,16.11
2022-10-18T07:14:16.051Z,15.99
2022-10-18T07:16:46.418Z,16.13
2022-10-18T07:19:14.991Z,16.32
2022-10-18T07:21:43.309Z,16.17
2022-10-18T07:24:11.799Z,16.18
2022-10-18T07:26:40.663Z,16.23
2022-10-18T07:29:13.168Z,16.38
2022-10-18T07:31:41.439Z,16.45
2022-10-18T07:34:15.201Z,16.41
2022-10-18T07:36:43.592Z,16.51
2022-10-18T07:39:11.891Z,16.50
2022-10-18T07:41:40.322Z,16.31
2022-10-18T07:44:09.255Z,16.19
2022-10-18T07:46:37.991Z,16.24
2022-10-18T07:49:06.412Z,16.37
2022-10-18T07:51:36.334Z,16.20
2022-10-18T07:54:05.360Z,16.29
2022-10-18T07:56:33.748Z,16.38
2022-10-18T07:59:06.259Z,16.33
2022-10-18T08:01:35.719Z,16.48
2022-10-18T08:04:07.461Z,16.47
2022-10-18T08:06:39.066Z,16.31
2022-10-18T08:09:08.009Z,16.14
2022-10-18T08:11:36.201Z,16.28
2022-10-18T08:14:08.968Z,16.47
2022-10-18T08:16:40.158Z,16.29
2022-10-18T08:19:09.617Z,16.39
2022-10-18T08:21:39.303Z,16.43
2022-10-18T08:24:07.908Z,16.34
2022-10-18T08:26:36.564Z,16.39
2022-10-18T08:29:22.539Z,16.41
2022-10-18T08:31:53.368Z,16.36
2022-10-18T08:34:21.788Z,16.40
2022-10-18T08:36:51.787Z,16.49
2022-10-18T08:39:20.291Z,16.46
2022-10-18T08:42:14.247Z,16.38
2022-10-18T08:44:48.033Z,16.40
2022-10-18T08:47:19.572Z,16.30
2022-10-18T08:49:53.091Z,16.33
2022-10-18T08:52:35.682Z,16.19
2022-10-18T08:55:11.503Z,16.32
2022-10-18T08:57:40.146Z,16.40
2022-10-18T09:00:17.417Z,16.60
2022-10-18T09:03:07.419Z,16.79
2022-10-18T09:05:46.349Z,16.97
2022-10-18T09:08:51.820Z,16.81
2022-10-18T09:11:35.118Z,16.82
2022-10-18T09:14:42.522Z,16.83
2022-10-18T09:17:27.405Z,16.81
2022-10-18T09:20:12.504Z,16.98
2022-10-18T09:22:53.620Z,16.87
2022-10-18T09:25:26.121Z,16.56
2022-10-18T09:27:57.402Z,16.53
2022-10-18T09:30:41.657Z,16.57
2022-10-18T09:33:28.944Z,16.61
2022-10-18T09:36:01.705Z,16.95
2022-10-18T09:38:44.482Z,16.90
2022-10-18T09:41:19.338Z,16.76
2022-10-18T09:43:56.208Z,16.69
2022-10-18T09:46:29.090Z,16.90
2022-10-18T09:49:04.928Z,16.98
2022-10-18T09:51:38.306Z,17.18
2022-10-18T09:54:24.593Z,17.14
2022-10-18T09:57:04.733Z,17.05
2022-10-18T09:59:41.221Z,16.94
2022-10-18T10:02:15.956Z,16.77
2022-10-18T10:04:44.749Z,17.05
2022-10-18T10:07:18.063Z,17.23
2022-10-18T10:09:48.576Z,17.23
2022-10-18T10:12:32.496Z,17.36
2022-10-18T10:15:21.377Z,17.40
2022-10-18T10:18:02.373Z,17.38
2022-10-18T10:20:38.198Z,17.30
2022-10-18T10:23:10.204Z,17.26
2022-10-18T10:25:40.857Z,17.31
2022-10-18T10:28:19.622Z,17.37
2022-10-18T10:30:48.519Z,17.49
2022-10-18T10:33:36.221Z,17.33
2022-10-18T10:36:16.963Z,17.26
2022-10-18T10:38:45.455Z,17.45
2022-10-18T10:41:23.265Z,17.51
2022-10-18T10:43:54.923Z,17.53
2022-10-18T10:46:23.996Z,17.46
2022-10-18T10:49:14.181Z,17.46
2022-10-18T10:51:50.601Z,17.38
2022-10-18T10:54:28.625Z,17.49
2022-10-18T10:57:02.156Z,18.00
2022-10-18T11:02:23.413Z,17.98
2022-10-18T11:04:54.342Z,18.04
2022-10-18T11:07:28.864Z,18.24
2022-10-18T11:10:04.727Z,18.30
2022-10-18T11:12:37.658Z,18.31
2022-10-18T11:15:22.113Z,18.18
2022-10-18T11:18:10.280Z,18.73
2022-10-18T11:20:44.511Z,18.75
2022-10-18T11:23:15.048Z,18.05
2022-10-18T11:26:10.749Z,17.73
2022-10-18T11:29:01.811Z,17.52
2022-10-18T11:31:37.009Z,17.61
2022-10-18T11:34:33.545Z,17.22
2022-10-18T11:37:34.531Z,17.18
2022-10-18T11:40:22.957Z,17.12
2022-10-18T11:43:01.159Z,17.07
2022-10-18T11:45:43.545Z,17.24
2022-10-18T11:48:42.966Z,17.36
2022-10-18T11:51:29.655Z,17.54
2022-10-18T11:54:33.088Z,17.83
2022-10-18T11:57:17.612Z,17.95
2022-10-18T11:59:59.658Z,18.06
2022-10-18T12:03:01.247Z,18.23
2022-10-18T12:05:33.202Z,18.10
2022-10-18T12:08:09.072Z,17.48
2022-10-18T12:10:46.114Z,17.60
2022-10-18T12:13:35.759Z,17.48
2022-10-18T12:16:06.725Z,17.54
2022-10-18T12:18:37.427Z,17.81
2022-10-18T12:21:08.242Z,17.84
2022-10-18T12:23:45.531Z,17.61
2022-10-18T12:26:14.674Z,17.64
2022-10-18T12:28:59.380Z,17.85
2022-10-18T12:31:35.283Z,17.80
2022-10-18T12:34:12.141Z,17.74
2022-10-18T12:37:15.400Z,18.01
2022-10-18T12:40:09.029Z,18.07
2022-10-18T12:42:44.069Z,17.98
2022-10-18T12:45:30.380Z,18.18
2022-10-18T12:48:02.796Z,18.19
2022-10-18T12:50:36.467Z,18.01
2022-10-18T12:53:20.277Z,18.09
2022-10-18T12:55:53.612Z,18.31
2022-10-18T12:58:32.475Z,18.07
2022-10-18T13:01:05.313Z,17.84
2022-10-18T13:04:01.802Z,17.80
2022-10-18T13:07:18.743Z,17.93
2022-10-18T13:10:38.306Z,17.70
2022-10-18T13:13:41.974Z,17.69
2022-10-18T13:16:34.056Z,17.69
2022-10-18T13:19:24.281Z,17.63
2022-10-18T13:22:11.839Z,17.60
2022-10-18T13:24:46.386Z,17.80
2022-10-18T13:27:36.358Z,17.70
2022-10-18T13:30:43.263Z,17.88
2022-10-18T13:33:32.508Z,17.99
2022-10-18T13:36:04.198Z,18.05
2022-10-18T13:38:48.764Z,18.39
2022-10-18T13:41:20.808Z,18.52
2022-10-18T13:44:13.425Z,18.11
2022-10-18T13:47:12.244Z,18.30
2022-10-18T13:50:04.051Z,18.61
2022-10-18T13:52:54.652Z,18.98
2022-10-18T13:55:55.832Z,18.99
2022-10-18T13:58:49.004Z,18.92
2022-10-18T14:01:40.285Z,19.10
2022-10-18T14:04:39.561Z,19.20
2022-10-18T14:07:10.174Z,19.12
2022-10-18T14:09:49.971Z,18.32
2022-10-18T14:12:32.005Z,18.17
2022-10-18T14:15:09.355Z,18.06
2022-10-18T14:17:46.230Z,18.30
2022-10-18T14:20:27.357Z,18.28
2022-10-18T14:23:07.946Z,17.92
2022-10-18T14:25:39.393Z,17.91
2022-10-18T14:28:14.301Z,17.87
2022-10-18T14:30:57.681Z,18.37
2022-10-18T14:33:36.378Z,18.20
2022-10-18T14:36:14.654Z,17.85
2022-10-18T14:38:52.440Z,17.70
2022-10-18T14:41:24.952Z,17.87
2022-10-18T14:43:54.827Z,18.03
2022-10-18T14:46:29.108Z,17.69
2022-10-18T14:49:06.620Z,17.55
2022-10-18T14:51:37.815Z,17.67
2022-10-18T14:54:09.188Z,17.79
2022-10-18T14:56:41.312Z,17.97
2022-10-18T14:59:20.264Z,17.85
2022-10-18T15:01:59.784Z,17.68
2022-10-18T15:04:33.255Z,17.55
2022-10-18T15:07:04.831Z,17.58
2022-10-18T15:09:36.490Z,17.80
2022-10-18T15:12:08.167Z,17.76
2022-10-18T15:14:37.829Z,17.52
2022-10-18T15:17:14.137Z,17.58
2022-10-18T15:19:59.402Z,17.47
2022-10-18T15:22:33.008Z,17.51
2022-10-18T15:25:16.958Z,17.53
2022-10-18T15:27:49.004Z,17.11
2022-10-18T15:30:25.055Z,16.82
2022-10-18T15:32:56.884Z,17.05
2022-10-18T15:35:32.894Z,17.15
2022-10-18T15:38:03.674Z,17.13
2022-10-18T15:40:42.909Z,16.90
2022-10-18T15:43:44.692Z,17.07
2022-10-18T15:46:33.126Z,17.19
2022-10-18T15:49:57.172Z,16.73
2022-10-18T15:52:48.370Z,16.83
2022-10-18T15:55:53.814Z,16.90
2022-10-18T15:58:26.651Z,16.72
2022-10-18T16:01:00.769Z,16.70
2022-10-18T16:03:29.988Z,16.85
2022-10-18T16:06:06.608Z,16.81
2022-10-18T16:08:42.399Z,16.90
2022-10-18T16:11:16.882Z,16.91
2022-10-18T16:13:46.666Z,16.75
2022-10-18T16:16:18.116Z,16.57
2022-10-18T16:18:47.633Z,16.65
2022-10-18T16:21:20.586Z,16.70
2022-10-18T16:23:51.389Z,16.62
2022-10-18T16:26:22.432Z,16.58
2022-10-18T16:28:52.469Z,16.42
2022-10-18T16:31:24.245Z,16.32
2022-10-18T16:33:54.916Z,16.24
2022-10-18T16:36:26.114Z,16.25
2022-10-18T16:38:57.199Z,16.27
2022-10-18T16:41:26.287Z,16.17
2022-10-18T16:43:56.114Z,16.15
2022-10-18T16:46:32.184Z,16.09
2022-10-18T16:49:01.777Z,15.96
2022-10-18T16:51:31.013Z,15.93
2022-10-18T16:54:01.589Z,15.98
2022-10-18T16:56:32.490Z,15.92
2022-10-18T16:59:02.315Z,15.91
2022-10-18T17:01:33.110Z,15.86
2022-10-18T17:04:09.123Z,15.69
2022-10-18T17:06:38.037Z,15.73
2022-10-18T17:09:08.241Z,15.76
2022-10-18T17:11:38.620Z,15.75
2022-10-18T17:14:07.813Z,15.44
2022-10-18T17:16:39.454Z,15.40
2022-10-18T17:19:14.788Z,15.30
2022-10-18T17:21:43.678Z,15.25
2022-10-18T17:24:13.628Z,15.23
2022-10-18T17:26:42.672Z,15.23
2022-10-18T17:29:12.302Z,15.27
2022-10-18T17:31:41.326Z,15.23
2022-10-18T17:34:10.690Z,15.20
2022-10-18T17:36:40.900Z,15.19
2022-10-18T17:39:13.731Z,15.00
2022-10-18T17:41:43.938Z,14.86
2022-10-18T17:44:13.365Z,14.67
2022-10-18T17:46:43.512Z,14.57
2022-10-18T17:49:14.206Z,14.27
2022-10-18T17:51:45.563Z,14.26
2022-10-18T17:54:16.656Z,14.42
2022-10-18T17:56:48.143Z,14.46
2022-10-18T17:59:19.711Z,14.50
2022-10-18T18:01:50.945Z,14.33
2022-10-18T18:04:20.525Z,14.32
2022-10-18T18:06:49.616Z,14.34
2022-10-18T18:09:21.502Z,14.37
2022-10-18T18:11:51.940Z,14.37
2022-10-18T18:14:21.990Z,14.35
2022-10-18T18:16:51.809Z,14.25
2022-10-18T18:19:21.243Z,13.98
2022-10-18T18:21:53.725Z,13.92
2022-10-18T18:24:26.095Z,13.85
2022-10-18T18:26:57.573Z,13.85
2022-10-18T18:29:29.661Z,13.82
2022-10-18T18:32:00.135Z,13.81
2022-10-18T18:34:28.772Z,13.71
2022-10-18T18:36:58.253Z,13.47
2022-10-18T18:39:30.675Z,13.42
2022-10-18T18:41:59.161Z,13.31
2022-10-18T18:44:27.638Z,13.38
2022-10-18T18:46:56.621Z,13.33
2022-10-18T18:49:26.996Z,13.18
2022-10-18T18:51:55.510Z,13.13
2022-10-18T18:54:24.863Z,12.96
2022-10-18T18:56:54.755Z,12.95
2022-10-18T18:59:23.011Z,13.10
2022-10-18T19:01:51.539Z,13.05
2022-10-18T19:04:19.779Z,12.94
2022-10-18T19:06:48.382Z,13.05
2022-10-18T19:09:21.988Z,12.84
2022-10-18T19:11:52.927Z,12.86
2022-10-18T19:14:23.979Z,12.84
2022-10-18T19:16:57.465Z,12.82
2022-10-18T19:19:28.204Z,12.76
2022-10-18T19:21:59.270Z,12.65
2022-10-18T19:24:31.234Z,12.58
2022-10-18T19:27:02.239Z,12.64
2022-10-18T19:29:34.713Z,12.71
2022-10-18T19:32:04.347Z,12.71
2022-10-18T19:34:34.291Z,12.60
2022-10-18T19:37:03.230Z,12.80
2022-10-18T19:39:33.639Z,12.72
2022-10-18T19:42:04.554Z,12.82
2022-10-18T19:44:36.696Z,12.68
2022-10-18T19:47:05.337Z,12.66
2022-10-18T19:49:34.090Z,12.53
2022-10-18T19:52:02.472Z,12.51
2022-10-18T19:54:30.892Z,12.40
2022-10-18T19:56:59.195Z,12.35
2022-10-18T19:59:27.891Z,12.41
2022-10-18T20:01:57.638Z,12.23
2022-10-18T20:04:26.143Z,12.23
2022-10-18T20:06:54.682Z,12.28
2022-10-18T20:09:23.697Z,12.18
2022-10-18T20:11:52.026Z,12.23
2022-10-18T20:14:21.178Z,12.14
2022-10-18T20:16:49.814Z,12.28
2022-10-18T20:19:20.505Z,12.19
2022-10-18T20:21:48.921Z,12.24
2022-10-18T20:24:17.427Z,12.11
2022-10-18T20:26:46.002Z,12.04
2022-10-18T20:29:14.990Z,11.94
2022-10-18T20:31:43.492Z,12.09
2022-10-18T20:34:13.656Z,11.75
2022-10-18T20:36:43.635Z,11.93
2022-10-18T20:39:12.226Z,11.74
2022-10-18T20:41:41.883Z,11.75
2022-10-18T20:44:16.103Z,11.87
2022-10-18T20:46:45.425Z,11.67
2022-10-18T20:49:16.413Z,11.70
2022-10-18T20:51:46.385Z,11.60
2022-10-18T20:54:16.418Z,11.56
2022-10-18T20:56:45.201Z,11.51
2022-10-18T20:59:14.124Z,11.28
2022-10-18T21:01:43.366Z,11.36
2022-10-18T21:04:11.944Z,11.47
2022-10-18T21:06:42.392Z,11.61
2022-10-18T21:09:14.894Z,11.62
2022-10-18T21:11:46.369Z,11.58
2022-10-18T21:14:18.255Z,11.51
2022-10-18T21:16:48.011Z,11.44
2022-10-18T21:19:19.195Z,11.46
2022-10-18T21:21:50.995Z,11.40
2022-10-18T21:24:22.586Z,11.34
2022-10-18T21:26:51.147Z,11.27
2022-10-18T21:29:22.464Z,11.26
2022-10-18T21:31:55.551Z,11.13
2022-10-18T21:34:24.311Z,11.11
2022-10-18T21:36:52.965Z,11.10
2022-10-18T21:39:25.264Z,11.07
2022-10-18T21:41:54.108Z,11.08
2022-10-18T21:44:22.643Z,11.08
2022-10-18T21:46:51.663Z,10.97
2022-10-18T21:49:23.433Z,11.03
2022-10-18T21:51:51.782Z,11.06
2022-10-18T21:54:20.221Z,10.97
2022-10-18T21:56:51.159Z,11.07
2022-10-18T21:59:19.438Z,11.07
2022-10-18T22:01:48.145Z,11.12
2022-10-18T22:04:22.666Z,10.94
2022-10-18T22:06:52.021Z,11.07
2022-10-18T22:09:22.172Z,10.89
2022-10-18T22:11:54.512Z,10.88
2022-10-18T22:14:23.635Z,10.94
2022-10-18T22:16:52.120Z,10.82
2022-10-18T22:19:20.874Z,10.57
2022-10-18T22:21:49.898Z,10.53
2022-10-18T22:24:18.772Z,10.47
2022-10-18T22:26:48.140Z,10.47
2022-10-18T22:29:20.343Z,10.43
2022-10-18T22:31:52.294Z,10.32
2022-10-18T22:34:23.182Z,10.18
2022-10-18T22:36:52.024Z,10.18
2022-10-18T22:39:20.929Z,10.35
2022-10-18T22:41:54.184Z,10.04
2022-10-18T22:44:24.379Z,10.00
2022-10-18T22:46:53.006Z,10.23
2022-10-18T22:49:21.942Z,10.30
2022-10-18T22:51:50.262Z,10.50
2022-10-18T22:54:18.985Z,10.56
2022-10-18T22:56:47.352Z,10.47
2022-10-18T22:59:16.132Z,10.39
2022-10-18T23:01:46.062Z,10.50
2022-10-18T23:04:14.746Z,10.57
2022-10-18T23:06:43.029Z,10.45
2022-10-18T23:09:13.128Z,10.35
2022-10-18T23:11:42.381Z,10.47
2022-10-18T23:14:12.245Z,10.28
2022-10-18T23:16:40.732Z,10.19
2022-10-18T23:19:17.273Z,10.19
2022-10-18T23:21:45.871Z,10.21
2022-10-18T23:24:14.252Z,10.24
2022-10-18T23:26:45.315Z,10.21
2022-10-18T23:29:13.784Z,10.04
2022-10-18T23:31:42.385Z,10.12
2022-10-18T23:34:12.291Z,10.13
2022-10-18T23:36:41.111Z,10.09
2022-10-18T23:39:09.576Z,10.17
2022-10-18T23:41:38.002Z,10.03
2022-10-18T23:44:09.030Z,9.81
2022-10-18T23:46:37.454Z,9.81
2022-10-18T23:49:05.979Z,9.82
2022-10-18T23:51:35.778Z,9.81
2022-10-18T23:54:04.191Z,9.64
2022-10-18T23:56:32.475Z,9.59
2022-10-18T23:59:00.970Z,9.48
